createdAt,value
2018-06-21T00:01:58.575Z,83.89
2018-06-21T00:04:27.937Z,84.45
2018-06-21T00:06:57.302Z,83.99
2018-06-21T00:09:26.677Z,84.32
2018-06-21T00:11:55.983Z,84.36
2018-06-21T00:14:25.363Z,84.28
2018-06-21T00:16:54.730Z,85.09
2018-06-21T00:19:24.116Z,85.91
2018-06-21T00:21:53.452Z,86.29
2018-06-21T00:24:22.767Z,86.23
2018-06-21T00:26:52.104Z,86.31
2018-06-21T00:29:21.499Z,86.29
2018-06-21T00:31:50.806Z,86.31
2018-06-21T00:34:20.241Z,87.25
2018-06-21T00:36:49.736Z,87.42
2018-06-21T00:39:19.073Z,87.19
2018-06-21T00:41:48.438Z,86.75
2018-06-21T00:44:17.747Z,86.34
2018-06-21T00:46:47.084Z,86.44
2018-06-21T00:49:16.424Z,86.16
2018-06-21T00:51:45.756Z,86.43
2018-06-21T00:54:15.071Z,86.72
2018-06-21T00:56:44.446Z,85.71
2018-06-21T00:59:13.760Z,85.91
2018-06-21T01:01:43.072Z,85.73
2018-06-21T01:04:12.401Z,86.92
2018-06-21T01:06:41.749Z,86.77
2018-06-21T01:09:11.070Z,85.98
2018-06-21T01:11:40.453Z,85.77
2018-06-21T01:14:09.804Z,86.26
2018-06-21T01:16:39.140Z,86.61
2018-06-21T01:19:08.464Z,86.45
2018-06-21T01:21:37.797Z,87.22
2018-06-21T01:24:07.222Z,86.70
2018-06-21T01:26:36.543Z,87.26
2018-06-21T01:29:06.006Z,87.66
2018-06-21T01:31:35.356Z,86.73
2018-06-21T01:34:04.716Z,86.71
2018-06-21T01:36:34.057Z,87.96
2018-06-21T01:39:03.489Z,87.64
2018-06-21T01:41:32.793Z,87.52
2018-06-21T01:44:02.196Z,87.71
2018-06-21T01:46:31.543Z,87.65
2018-06-21T01:49:00.884Z,87.69
2018-06-21T01:51:30.356Z,88.28
2018-06-21T01:53:59.848Z,87.36
2018-06-21T01:56:29.170Z,85.98
2018-06-21T01:58:58.583Z,87.65
2018-06-21T02:01:27.899Z,87.60
2018-06-21T02:03:57.244Z,87.61
2018-06-21T02:06:26.648Z,87.59
2018-06-21T02:15:56.023Z,86.93
2018-06-21T02:18:25.355Z,88.69
2018-06-21T02:20:54.699Z,89.95
2018-06-21T02:23:24.036Z,89.86
2018-06-21T02:25:54.892Z,90.59
2018-06-21T02:28:24.240Z,90.50
2018-06-21T02:30:53.644Z,91.68
2018-06-21T02:33:22.982Z,91.40
2018-06-21T02:35:52.311Z,91.56
2018-06-21T02:38:21.619Z,90.36
2018-06-21T02:40:50.953Z,90.93
2018-06-21T02:43:20.359Z,90.84
2018-06-21T02:45:49.781Z,90.69
2018-06-21T02:48:18.882Z,90.90
2018-06-21T02:50:48.196Z,89.78
2018-06-21T02:53:17.534Z,91.56
2018-06-21T02:55:46.924Z,92.50
2018-06-21T02:58:16.240Z,92.46
2018-06-21T03:00:45.544Z,92.29
2018-06-21T03:03:14.879Z,91.98
2018-06-21T03:05:44.212Z,91.37
2018-06-21T03:08:13.561Z,91.32
2018-06-21T03:10:42.976Z,91.89
2018-06-21T03:13:12.306Z,90.90
2018-06-21T03:15:41.629Z,91.25
2018-06-21T03:18:10.957Z,91.07
2018-06-21T03:20:40.263Z,91.06
2018-06-21T03:23:09.579Z,91.09
2018-06-21T03:25:38.989Z,91.30
2018-06-21T03:28:08.300Z,90.32
2018-06-21T03:30:37.669Z,90.80
2018-06-21T03:33:07.184Z,90.67
2018-06-21T03:35:36.530Z,90.75
2018-06-21T03:38:05.854Z,90.65
2018-06-21T03:40:35.188Z,90.91
2018-06-21T03:43:04.504Z,91.24
2018-06-21T03:45:33.831Z,91.96
2018-06-21T03:48:03.163Z,91.71
2018-06-21T03:50:32.489Z,91.67
2018-06-21T03:53:01.865Z,91.36
2018-06-21T03:55:31.200Z,92.05
2018-06-21T03:58:00.508Z,91.68
2018-06-21T04:00:29.860Z,91.57
2018-06-21T04:02:59.220Z,91.71
2018-06-21T04:05:28.651Z,92.13
2018-06-21T04:07:57.907Z,91.89
2018-06-21T04:10:27.273Z,90.45
2018-06-21T04:12:56.685Z,90.37
2018-06-21T04:15:26.047Z,90.80
2018-06-21T04:17:55.406Z,91.02
2018-06-21T04:20:24.809Z,90.29
2018-06-21T04:22:54.349Z,90.50
2018-06-21T04:25:23.682Z,90.99
2018-06-21T04:27:53.007Z,90.80
2018-06-21T04:30:22.339Z,90.44
2018-06-21T04:32:51.704Z,90.19
2018-06-21T04:35:21.020Z,91.05
2018-06-21T04:37:50.382Z,90.64
2018-06-21T04:40:19.767Z,91.21
2018-06-21T04:42:49.164Z,90.21
2018-06-21T04:45:18.500Z,90.07
2018-06-21T04:47:47.844Z,89.23
2018-06-21T04:50:17.173Z,89.83
2018-06-21T04:52:46.518Z,88.65
2018-06-21T04:55:15.836Z,90.47
2018-06-21T04:57:45.163Z,90.11
2018-06-21T05:00:14.563Z,88.37
2018-06-21T05:02:43.998Z,88.79
2018-06-21T05:05:13.367Z,87.87
2018-06-21T05:07:42.685Z,88.46
2018-06-21T05:10:12.064Z,88.30
2018-06-21T05:12:41.460Z,88.06
2018-06-21T05:15:10.795Z,88.64
2018-06-21T05:17:40.168Z,88.03
2018-06-21T05:20:09.483Z,87.59
2018-06-21T05:22:38.931Z,88.08
2018-06-21T05:25:08.293Z,86.16
2018-06-21T05:27:37.601Z,86.56
2018-06-21T05:30:06.963Z,86.75
2018-06-21T05:32:36.088Z,85.16
2018-06-21T05:35:05.473Z,85.35
2018-06-21T05:37:35.017Z,84.38
2018-06-21T05:40:04.444Z,83.91
2018-06-21T05:42:33.798Z,83.91
2018-06-21T05:45:03.120Z,82.59
2018-06-21T05:47:32.453Z,82.85
2018-06-21T05:50:01.804Z,82.33
2018-06-21T05:52:31.149Z,81.04
2018-06-21T05:55:00.472Z,81.45
2018-06-21T05:57:29.800Z,79.99
2018-06-21T05:59:59.132Z,80.26
2018-06-21T06:02:28.440Z,79.56
2018-06-21T06:04:57.764Z,78.93
2018-06-21T06:07:27.109Z,76.18
2018-06-21T06:09:56.463Z,72.09
2018-06-21T06:12:25.780Z,69.57
2018-06-21T06:14:55.136Z,71.63
2018-06-21T06:17:24.460Z,71.71
2018-06-21T06:19:53.768Z,70.82
2018-06-21T06:22:23.106Z,71.86
2018-06-21T06:24:52.444Z,73.20
2018-06-21T06:27:21.752Z,74.12
2018-06-21T06:29:51.093Z,73.78
2018-06-21T06:32:20.484Z,74.46
2018-06-21T06:34:49.803Z,72.84
2018-06-21T06:37:19.141Z,72.75
2018-06-21T06:39:48.457Z,72.54
2018-06-21T06:42:17.768Z,72.06
2018-06-21T06:44:47.107Z,71.37
2018-06-21T06:47:16.544Z,71.47
2018-06-21T06:49:45.848Z,71.15
2018-06-21T06:52:15.207Z,69.95
2018-06-21T06:54:44.676Z,70.98
2018-06-21T06:57:13.896Z,71.74
2018-06-21T06:59:43.232Z,70.79
2018-06-21T07:02:12.552Z,70.88
2018-06-21T07:04:41.956Z,71.22
2018-06-21T07:07:11.308Z,70.98
2018-06-21T07:09:40.662Z,71.07
2018-06-21T07:12:10.018Z,71.63
2018-06-21T07:14:39.372Z,72.01
2018-06-21T07:17:08.691Z,71.44
2018-06-21T07:19:39.289Z,71.23
2018-06-21T07:22:08.636Z,70.59
2018-06-21T07:24:37.969Z,72.60
2018-06-21T07:27:07.347Z,72.54
2018-06-21T07:29:36.634Z,72.87
2018-06-21T07:32:05.971Z,72.74
2018-06-21T07:34:35.314Z,71.41
2018-06-21T07:37:04.713Z,72.01
2018-06-21T07:39:34.040Z,70.94
2018-06-21T07:42:03.392Z,73.06
2018-06-21T07:44:32.718Z,72.40
2018-06-21T07:47:02.110Z,74.19
2018-06-21T07:49:31.508Z,74.53
2018-06-21T07:52:00.817Z,73.28
2018-06-21T07:54:30.189Z,73.80
2018-06-21T07:56:59.538Z,72.68
2018-06-21T07:59:28.893Z,72.71
2018-06-21T08:01:58.225Z,72.50
2018-06-21T08:04:27.603Z,73.71
2018-06-21T08:06:56.922Z,74.73
2018-06-21T08:09:26.299Z,75.63
2018-06-21T08:11:55.620Z,78.80
2018-06-21T08:14:24.945Z,78.82
2018-06-21T08:16:54.324Z,79.43
2018-06-21T08:19:23.661Z,81.29
2018-06-21T08:21:52.961Z,82.34
2018-06-21T08:24:22.339Z,85.12
2018-06-21T08:26:51.699Z,87.87
2018-06-21T08:29:20.960Z,90.47
2018-06-21T08:31:50.300Z,90.66
2018-06-21T08:34:19.621Z,91.54
2018-06-21T08:36:49.197Z,90.38
2018-06-21T08:39:18.539Z,90.64
2018-06-21T08:41:47.860Z,91.73
2018-06-21T08:44:17.180Z,92.19
2018-06-21T08:46:46.536Z,92.14
2018-06-21T08:49:15.872Z,93.16
2018-06-21T08:51:45.204Z,91.74
2018-06-21T08:54:14.568Z,90.88
2018-06-21T08:56:43.976Z,91.51
2018-06-21T08:59:13.340Z,93.04
2018-06-21T09:01:42.704Z,95.26
2018-06-21T09:04:12.037Z,94.59
2018-06-21T09:06:41.362Z,93.75
2018-06-21T09:09:10.982Z,93.73
2018-06-21T09:11:40.332Z,91.15
2018-06-21T09:14:09.694Z,89.12
2018-06-21T09:16:39.016Z,89.69
2018-06-21T09:19:08.352Z,89.26
2018-06-21T09:21:37.664Z,86.81
2018-06-21T09:24:07.046Z,85.71
2018-06-21T09:26:36.403Z,86.36
2018-06-21T09:29:06.195Z,86.09
2018-06-21T09:31:35.543Z,85.41
2018-06-21T09:34:04.908Z,84.67
2018-06-21T09:36:37.440Z,85.97
2018-06-21T09:39:15.169Z,83.91
2018-06-21T09:41:50.188Z,81.65
2018-06-21T09:44:24.879Z,80.51
2018-06-21T09:46:59.584Z,80.56
2018-06-21T09:49:30.828Z,78.69
2018-06-21T09:52:02.775Z,77.99
2018-06-21T09:54:32.562Z,76.35
2018-06-21T09:57:01.923Z,75.26
2018-06-21T09:59:31.905Z,71.09
2018-06-21T10:02:01.253Z,73.12
2018-06-21T10:04:30.572Z,70.87
2018-06-21T10:06:59.942Z,71.19
2018-06-21T10:09:29.323Z,68.92
2018-06-21T10:11:58.703Z,67.53
2018-06-21T10:14:28.049Z,68.26
2018-06-21T10:17:00.352Z,67.59
2018-06-21T10:19:29.700Z,66.98
2018-06-21T10:21:59.041Z,66.62
2018-06-21T10:24:28.437Z,65.43
2018-06-21T10:26:57.783Z,66.41
2018-06-21T10:29:27.141Z,66.44
2018-06-21T10:31:56.500Z,65.19
2018-06-21T10:34:25.836Z,63.89
2018-06-21T10:36:55.172Z,64.89
2018-06-21T10:39:24.517Z,62.91
2018-06-21T10:41:53.896Z,61.75
2018-06-21T10:44:23.223Z,62.91
2018-06-21T10:46:52.536Z,59.74
2018-06-21T10:49:21.917Z,59.03
2018-06-21T10:51:51.232Z,61.33
2018-06-21T10:54:20.563Z,60.58
2018-06-21T10:56:49.984Z,58.93
2018-06-21T10:59:19.292Z,59.01
2018-06-21T11:01:48.624Z,58.31
2018-06-21T11:04:17.952Z,57.31
2018-06-21T11:06:47.538Z,59.31
2018-06-21T11:09:16.872Z,60.31
2018-06-21T11:11:46.247Z,58.38
2018-06-21T11:14:15.576Z,57.34
2018-06-21T11:16:44.939Z,57.47
2018-06-21T11:19:14.300Z,57.36
2018-06-21T11:21:43.634Z,58.77
2018-06-21T11:24:12.964Z,56.94
2018-06-21T11:26:42.326Z,59.31
2018-06-21T11:29:11.648Z,56.40
2018-06-21T11:31:40.984Z,54.23
2018-06-21T11:34:10.322Z,52.55
2018-06-21T11:36:39.649Z,51.53
2018-06-21T11:39:10.374Z,50.35
2018-06-21T11:41:39.683Z,50.94
2018-06-21T11:44:09.020Z,52.24
2018-06-21T11:46:38.416Z,51.28
2018-06-21T11:49:07.704Z,54.83
2018-06-21T11:51:37.053Z,54.29
2018-06-21T11:54:06.400Z,55.78
2018-06-21T11:56:35.727Z,55.68
2018-06-21T11:59:05.361Z,53.63
2018-06-21T12:01:34.856Z,50.16
2018-06-21T12:04:04.195Z,50.64
2018-06-21T12:06:33.527Z,48.77
2018-06-21T12:09:02.878Z,50.07
2018-06-21T12:11:32.249Z,51.38
2018-06-21T12:14:01.642Z,51.78
2018-06-21T12:16:30.906Z,48.53
2018-06-21T12:19:00.287Z,48.89
2018-06-21T12:21:29.621Z,46.55
2018-06-21T12:23:58.932Z,48.00
2018-06-21T12:26:28.348Z,45.53
2018-06-21T12:28:57.629Z,45.70
2018-06-21T12:31:26.962Z,46.72
2018-06-21T12:33:56.384Z,46.07
2018-06-21T12:36:25.749Z,44.08
2018-06-21T12:38:55.176Z,46.56
2018-06-21T12:41:24.506Z,45.73
2018-06-21T12:43:53.876Z,46.63
2018-06-21T12:46:23.213Z,43.26
2018-06-21T12:48:55.543Z,45.01
2018-06-21T12:51:24.843Z,44.98
2018-06-21T12:53:54.180Z,44.87
2018-06-21T12:56:23.502Z,45.91
2018-06-21T12:58:52.867Z,45.47
2018-06-21T13:01:22.216Z,46.15
2018-06-21T13:03:51.557Z,46.34
2018-06-21T13:06:20.920Z,43.18
2018-06-21T13:09:07.320Z,44.83
2018-06-21T13:12:52.863Z,44.89
2018-06-21T13:15:22.305Z,43.61
2018-06-21T13:17:51.576Z,40.50
2018-06-21T13:20:20.925Z,39.84
2018-06-21T13:22:50.252Z,41.50
2018-06-21T13:26:55.444Z,40.46
2018-06-21T13:29:24.815Z,41.97
2018-06-21T13:31:54.140Z,40.40
2018-06-21T13:34:23.503Z,39.87
2018-06-21T13:36:52.882Z,40.29
2018-06-21T13:39:22.191Z,42.11
2018-06-21T13:41:51.490Z,41.07
2018-06-21T13:44:21.164Z,41.61
2018-06-21T13:46:50.497Z,41.45
2018-06-21T13:49:19.804Z,41.74
2018-06-21T13:51:49.225Z,41.45
2018-06-21T13:54:18.553Z,42.17
2018-06-21T13:56:48.459Z,40.95
2018-06-21T13:59:18.758Z,40.19
2018-06-21T14:01:48.616Z,41.21
2018-06-21T14:04:17.952Z,41.14
2018-06-21T14:06:47.428Z,40.63
2018-06-21T14:09:16.851Z,40.47
2018-06-21T14:11:46.180Z,38.67
2018-06-21T14:14:15.528Z,37.85
2018-06-21T14:16:44.864Z,39.99
2018-06-21T14:19:14.224Z,38.16
2018-06-21T14:21:43.542Z,38.42
2018-06-21T14:24:14.139Z,38.52
2018-06-21T14:26:43.803Z,38.45
2018-06-21T14:29:13.124Z,37.24
2018-06-21T14:31:42.466Z,35.80
2018-06-21T14:34:11.816Z,34.76
2018-06-21T14:36:41.128Z,34.06
2018-06-21T14:39:10.532Z,33.41
2018-06-21T14:41:39.881Z,35.36
2018-06-21T14:44:09.274Z,36.33
2018-06-21T14:46:38.667Z,37.11
2018-06-21T14:49:07.999Z,34.86
2018-06-21T14:51:37.371Z,34.34
2018-06-21T14:54:06.723Z,33.24
2018-06-21T14:56:36.063Z,31.78
2018-06-21T14:59:05.429Z,34.22
2018-06-21T15:01:34.790Z,35.88
2018-06-21T15:04:04.177Z,34.94
2018-06-21T15:06:33.529Z,34.73
2018-06-21T15:09:03.041Z,35.43
2018-06-21T15:11:32.298Z,34.64
2018-06-21T15:14:01.669Z,38.90
2018-06-21T15:16:31.016Z,38.28
2018-06-21T15:19:00.333Z,35.61
2018-06-21T15:21:29.678Z,32.23
2018-06-21T15:23:59.040Z,33.71
2018-06-21T15:26:28.448Z,31.42
2018-06-21T15:28:57.849Z,34.01
2018-06-21T15:31:27.155Z,32.72
2018-06-21T15:33:56.477Z,33.15
2018-06-21T15:36:25.852Z,34.69
2018-06-21T15:38:57.761Z,35.17
2018-06-21T15:41:29.568Z,36.51
2018-06-21T15:43:58.957Z,35.40
2018-06-21T15:46:28.300Z,35.17
2018-06-21T15:48:57.641Z,35.64
2018-06-21T15:51:26.991Z,37.66
2018-06-21T15:53:56.269Z,39.06
2018-06-21T15:56:25.812Z,40.91
2018-06-21T15:58:55.463Z,38.95
2018-06-21T16:01:25.119Z,40.58
2018-06-21T16:03:54.768Z,39.00
2018-06-21T16:06:24.382Z,38.61
2018-06-21T16:08:53.998Z,40.89
2018-06-21T16:11:23.621Z,40.25
2018-06-21T16:13:53.301Z,38.46
2018-06-21T16:16:22.951Z,40.30
2018-06-21T16:18:52.611Z,39.09
2018-06-21T16:21:22.217Z,37.40
2018-06-21T16:23:52.182Z,36.72
2018-06-21T16:26:21.532Z,37.25
2018-06-21T16:28:50.880Z,36.18
2018-06-21T16:31:20.220Z,34.61
2018-06-21T16:33:49.560Z,35.68
2018-06-21T16:36:18.896Z,36.06
2018-06-21T16:38:48.256Z,38.24
2018-06-21T16:41:17.603Z,37.01
2018-06-21T16:43:46.953Z,36.16
2018-06-21T16:46:16.289Z,36.90
2018-06-21T16:48:45.846Z,36.10
2018-06-21T16:51:15.178Z,37.03
2018-06-21T16:53:44.527Z,38.59
2018-06-21T16:56:13.892Z,40.37
2018-06-21T16:58:43.204Z,39.94
2018-06-21T17:01:12.564Z,37.30
2018-06-21T17:03:45.727Z,39.57
2018-06-21T17:06:15.109Z,38.00
2018-06-21T17:08:44.427Z,36.11
2018-06-21T17:11:13.851Z,34.98
2018-06-21T17:13:43.204Z,36.03
2018-06-21T17:16:12.508Z,35.74
2018-06-21T17:18:41.897Z,34.62
2018-06-21T17:21:11.372Z,34.65
2018-06-21T17:23:40.765Z,37.00
2018-06-21T17:26:10.112Z,40.34
2018-06-21T17:28:39.480Z,41.58
2018-06-21T17:31:08.822Z,43.32
2018-06-21T17:33:38.199Z,42.33
2018-06-21T17:36:07.627Z,42.35
2018-06-21T17:38:36.945Z,42.46
2018-06-21T17:41:06.375Z,44.70
2018-06-21T17:43:35.729Z,46.38
2018-06-21T17:46:05.112Z,45.13
2018-06-21T17:48:34.431Z,44.20
2018-06-21T17:51:03.768Z,43.46
2018-06-21T17:53:33.136Z,44.48
2018-06-21T17:56:03.718Z,44.63
2018-06-21T17:58:33.052Z,46.73
2018-06-21T18:01:03.509Z,48.25
2018-06-21T18:03:32.828Z,49.03
2018-06-21T18:06:02.234Z,50.24
2018-06-21T18:08:31.671Z,50.85
2018-06-21T18:11:01.033Z,50.01
2018-06-21T18:13:30.386Z,52.15
2018-06-21T18:15:59.717Z,52.31
2018-06-21T18:18:29.033Z,51.37
2018-06-21T18:20:58.362Z,53.16
2018-06-21T18:23:27.716Z,53.13
2018-06-21T18:25:57.034Z,53.04
2018-06-21T18:28:26.406Z,53.17
2018-06-21T18:30:55.845Z,54.51
2018-06-21T18:33:25.212Z,54.31
2018-06-21T18:35:54.620Z,55.07
2018-06-21T18:38:23.968Z,55.03
2018-06-21T18:40:53.312Z,55.07
2018-06-21T18:43:22.652Z,56.04
2018-06-21T18:45:52.090Z,55.44
2018-06-21T18:48:21.720Z,55.79
2018-06-21T18:50:51.221Z,55.08
2018-06-21T18:53:20.256Z,56.34
2018-06-21T18:55:49.714Z,57.11
2018-06-21T18:58:19.289Z,57.10
2018-06-21T19:00:49.216Z,56.75
2018-06-21T19:03:18.962Z,57.16
2018-06-21T19:05:50.246Z,56.98
2018-06-21T19:08:24.805Z,57.18
2018-06-21T19:10:59.323Z,58.80
2018-06-21T19:13:28.810Z,58.93
2018-06-21T19:15:58.233Z,59.82
2018-06-21T19:18:27.609Z,59.65
2018-06-21T19:20:57.074Z,60.21
2018-06-21T19:23:26.437Z,60.16
2018-06-21T19:25:55.885Z,60.46
2018-06-21T19:28:25.279Z,60.21
2018-06-21T19:30:54.612Z,59.43
2018-06-21T19:33:24.023Z,60.17
2018-06-21T19:35:53.411Z,61.64
2018-06-21T19:38:22.896Z,60.71
2018-06-21T19:40:52.272Z,60.46
2018-06-21T19:43:21.905Z,60.07
2018-06-21T19:45:51.454Z,60.65
2018-06-21T19:48:20.575Z,59.77
2018-06-21T19:50:50.245Z,61.31
2018-06-21T19:53:20.433Z,60.89
2018-06-21T19:55:51.057Z,61.09
2018-06-21T19:58:20.569Z,61.05
2018-06-21T20:00:50.380Z,62.47
2018-06-21T20:03:20.969Z,61.56
2018-06-21T20:05:50.825Z,62.79
2018-06-21T20:08:20.623Z,64.15
2018-06-21T20:10:56.185Z,70.22
2018-06-21T20:13:25.672Z,75.33
2018-06-21T20:15:55.318Z,79.48
2018-06-21T20:18:24.735Z,81.92
2018-06-21T20:20:54.192Z,80.72
2018-06-21T20:23:23.512Z,82.47
2018-06-21T20:25:52.922Z,82.22
2018-06-21T20:28:22.353Z,84.44
2018-06-21T20:30:51.733Z,84.79
2018-06-21T20:33:21.096Z,85.84
2018-06-21T20:35:50.443Z,86.48
2018-06-21T20:38:19.924Z,85.67
2018-06-21T20:40:49.264Z,85.63
2018-06-21T20:43:18.588Z,85.73
2018-06-21T20:45:47.941Z,85.18
2018-06-21T20:48:17.292Z,82.90
2018-06-21T20:50:46.618Z,81.92
2018-06-21T20:53:15.939Z,83.28
2018-06-21T20:55:45.330Z,83.82
2018-06-21T20:58:14.648Z,82.49
2018-06-21T21:00:43.976Z,82.29
2018-06-21T21:03:13.287Z,83.01
2018-06-21T21:05:42.656Z,83.35
2018-06-21T21:08:12.214Z,82.88
2018-06-21T21:10:41.833Z,84.15
2018-06-21T21:13:11.479Z,83.00
2018-06-21T21:15:41.159Z,82.99
2018-06-21T21:18:10.750Z,83.64
2018-06-21T21:20:40.396Z,83.77
2018-06-21T21:23:10.071Z,85.41
2018-06-21T21:25:39.639Z,83.76
2018-06-21T21:28:09.301Z,84.96
2018-06-21T21:30:38.961Z,83.80
2018-06-21T21:33:08.693Z,85.64
2018-06-21T21:35:38.387Z,83.44
2018-06-21T21:38:07.908Z,83.85
2018-06-21T21:40:37.543Z,84.78
2018-06-21T21:43:07.228Z,83.98
2018-06-21T21:45:36.843Z,85.47
2018-06-21T21:48:06.479Z,83.96
2018-06-21T21:50:36.082Z,84.78
2018-06-21T21:53:05.792Z,85.40
2018-06-21T21:55:36.339Z,84.45
2018-06-21T21:58:06.028Z,84.48
2018-06-21T22:00:44.940Z,85.09
2018-06-21T22:03:14.655Z,83.56
2018-06-21T22:05:44.777Z,84.16
2018-06-21T22:08:14.415Z,84.30
2018-06-21T22:10:45.119Z,84.29
2018-06-21T22:13:15.314Z,84.50
2018-06-21T22:15:44.921Z,84.14
2018-06-21T22:18:14.567Z,84.78
2018-06-21T22:20:44.229Z,84.25
2018-06-21T22:23:13.898Z,84.48
2018-06-21T22:25:43.600Z,83.83
2018-06-21T22:28:13.189Z,83.83
2018-06-21T22:30:42.831Z,83.37
2018-06-21T22:33:12.397Z,83.85
2018-06-21T22:35:42.037Z,83.49
2018-06-21T22:38:11.644Z,84.06
2018-06-21T22:40:41.262Z,84.05
2018-06-21T22:43:10.905Z,83.92
2018-06-21T22:45:40.500Z,84.11
2018-06-21T22:48:10.084Z,82.74
2018-06-21T22:50:39.847Z,83.64
2018-06-21T22:53:09.473Z,82.65
2018-06-21T22:55:39.006Z,82.19
2018-06-21T22:58:08.755Z,81.37
2018-06-21T23:00:38.371Z,82.25
2018-06-21T23:03:08.066Z,81.52
2018-06-21T23:05:37.378Z,81.23
2018-06-21T23:08:06.715Z,80.88
2018-06-21T23:10:36.048Z,81.26
2018-06-21T23:13:05.383Z,81.83
2018-06-21T23:15:34.728Z,81.54
2018-06-21T23:18:04.104Z,81.77
2018-06-21T23:20:33.425Z,81.82
2018-06-21T23:23:02.854Z,81.99
2018-06-21T23:25:32.209Z,82.63
2018-06-21T23:28:01.544Z,82.91
2018-06-21T23:30:30.852Z,82.85
2018-06-21T23:33:00.206Z,81.71
2018-06-21T23:35:29.549Z,82.10
2018-06-21T23:37:58.870Z,80.74
2018-06-21T23:40:28.279Z,81.46
2018-06-21T23:42:57.600Z,81.87
2018-06-21T23:45:26.960Z,80.59
2018-06-21T23:47:56.280Z,79.80
2018-06-21T23:50:25.613Z,78.40
2018-06-21T23:52:55.028Z,78.79
2018-06-21T23:55:24.336Z,77.83
2018-06-21T23:57:53.660Z,78.63
